Suzuka, Japan
Current Conditions -  °F | °C
As of 2:00 PM on Saturday 20 Dec 2014 (Local Time) from RJGG Reporting Station
Rain Showers Rain Showers  
Wind Chill:   Ceiling: 1500
Heat Index:   Visibility: 2.8mi
Dew Point:   Wind: 16mph
Humidity: 87%   Direction: 330°NNW
Pressure: 29.85"   Gusts: NA
Location:  34.88°N, 136.58°E
Report Text: RJGG 200500Z 33014KT 4500 SHRA BR FEW008 SCT012 BKN015 06/04 Q1011 WS R36 TEMPO 3000 SHRA BR FEW005 BKN008 BKN015
Loading
Personal Weather Stations






























Interactive Weather Map New forecast layout! Learn more

10-Day Weather Forecast

Advertisements
Track Severe Weather on mobile